sensor_id;sensor_type;location;lat;lon;timestamp;pressure;altitude;pressure_sealevel;temperature;humidity
75497;BME280;64074;47.540;19.072;2024-02-21T00:00:13;101422.41;;;8.60;75.36
75497;BME280;64074;47.540;19.072;2024-02-21T00:03:35;101421.13;;;8.41;75.47
75497;BME280;64074;47.540;19.072;2024-02-21T00:06:51;101417.28;;;8.59;75.21
75497;BME280;64074;47.540;19.072;2024-02-21T00:09:57;101418.44;;;8.41;75.36
75497;BME280;64074;47.540;19.072;2024-02-21T00:13:01;101432.00;;;8.24;76.01
75497;BME280;64074;47.540;19.072;2024-02-21T00:16:15;101422.75;;;8.42;75.60
75497;BME280;64074;47.540;19.072;2024-02-21T00:19:35;101420.56;;;8.39;75.77
75497;BME280;64074;47.540;19.072;2024-02-21T00:22:51;101415.97;;;8.40;76.54
75497;BME280;64074;47.540;19.072;2024-02-21T00:26:18;101409.72;;;8.61;75.04
75497;BME280;64074;47.540;19.072;2024-02-21T00:29:39;101401.59;;;8.61;75.09
75497;BME280;64074;47.540;19.072;2024-02-21T00:32:57;101395.66;;;8.59;74.94
75497;BME280;64074;47.540;19.072;2024-02-21T00:36:06;101392.03;;;8.48;75.18
75497;BME280;64074;47.540;19.072;2024-02-21T00:39:27;101396.16;;;8.56;74.82
75497;BME280;64074;47.540;19.072;2024-02-21T00:42:34;101387.44;;;8.49;75.15
75497;BME280;64074;47.540;19.072;2024-02-21T00:45:46;101396.72;;;8.58;75.07
75497;BME280;64074;47.540;19.072;2024-02-21T00:49:02;101401.41;;;8.68;75.16
75497;BME280;64074;47.540;19.072;2024-02-21T00:52:15;101393.00;;;8.37;74.67
75497;BME280;64074;47.540;19.072;2024-02-21T00:55:36;101394.19;;;8.24;74.11
75497;BME280;64074;47.540;19.072;2024-02-21T00:58:44;101390.75;;;8.56;73.61
75497;BME280;64074;47.540;19.072;2024-02-21T01:01:49;101406.25;;;8.66;73.37
75497;BME280;64074;47.540;19.072;2024-02-21T01:04:58;101389.06;;;8.50;72.64
75497;BME280;64074;47.540;19.072;2024-02-21T01:08:20;101388.69;;;8.41;73.46
75497;BME280;64074;47.540;19.072;2024-02-21T01:11:41;101386.13;;;8.51;72.98
75497;BME280;64074;47.540;19.072;2024-02-21T01:15:11;101379.22;;;8.17;72.75
75497;BME280;64074;47.540;19.072;2024-02-21T01:18:33;101383.09;;;7.99;73.72
75497;BME280;64074;47.540;19.072;2024-02-21T01:21:48;101382.81;;;8.22;73.47
75497;BME280;64074;47.540;19.072;2024-02-21T01:24:59;101377.13;;;8.19;73.29
75497;BME280;64074;47.540;19.072;2024-02-21T01:28:18;101378.75;;;7.98;73.58
75497;BME280;64074;47.540;19.072;2024-02-21T01:31:25;101379.81;;;8.19;73.45
75497;BME280;64074;47.540;19.072;2024-02-21T01:34:31;101384.34;;;7.91;74.36
75497;BME280;64074;47.540;19.072;2024-02-21T01:37:38;101372.84;;;8.01;73.68
75497;BME280;64074;47.540;19.072;2024-02-21T01:40:42;101375.81;;;7.99;74.40
75497;BME280;64074;47.540;19.072;2024-02-21T01:43:55;101371.34;;;7.88;74.02
75497;BME280;64074;47.540;19.072;2024-02-21T01:47:10;101371.69;;;7.70;75.73
75497;BME280;64074;47.540;19.072;2024-02-21T01:50:31;101369.09;;;7.80;75.16
75497;BME280;64074;47.540;19.072;2024-02-21T01:53:53;101364.44;;;7.54;76.18
75497;BME280;64074;47.540;19.072;2024-02-21T01:57:15;101357.47;;;7.80;75.74
75497;BME280;64074;47.540;19.072;2024-02-21T02:00:32;101364.19;;;7.77;76.15
75497;BME280;64074;47.540;19.072;2024-02-21T02:03:38;101359.38;;;7.79;75.82
75497;BME280;64074;47.540;19.072;2024-02-21T02:06:48;101352.94;;;7.41;77.17
75497;BME280;64074;47.540;19.072;2024-02-21T02:10:26;101352.59;;;7.77;76.22
75497;BME280;64074;47.540;19.072;2024-02-21T02:13:57;101347.13;;;7.71;76.07
75497;BME280;64074;47.540;19.072;2024-02-21T02:17:22;101342.66;;;7.82;75.48
75497;BME280;64074;47.540;19.072;2024-02-21T02:20:45;101347.63;;;7.68;76.10
75497;BME280;64074;47.540;19.072;2024-02-21T02:24:07;101350.56;;;7.67;75.98
75497;BME280;64074;47.540;19.072;2024-02-21T02:27:22;101354.66;;;7.48;76.76
75497;BME280;64074;47.540;19.072;2024-02-21T02:30:33;101348.69;;;7.46;77.36
75497;BME280;64074;47.540;19.072;2024-02-21T02:33:44;101352.13;;;7.63;76.46
75497;BME280;64074;47.540;19.072;2024-02-21T02:36:54;101352.94;;;7.63;76.69
75497;BME280;64074;47.540;19.072;2024-02-21T02:40:15;101345.19;;;7.45;77.25
75497;BME280;64074;47.540;19.072;2024-02-21T02:43:23;101350.00;;;7.65;76.63
75497;BME280;64074;47.540;19.072;2024-02-21T02:46:27;101352.19;;;7.68;76.59
75497;BME280;64074;47.540;19.072;2024-02-21T02:49:34;101341.88;;;7.43;77.42
75497;BME280;64074;47.540;19.072;2024-02-21T02:52:45;101340.84;;;7.44;77.55
75497;BME280;64074;47.540;19.072;2024-02-21T02:55:59;101338.44;;;7.26;78.05
75497;BME280;64074;47.540;19.072;2024-02-21T02:59:03;101336.94;;;7.35;77.98
75497;BME280;64074;47.540;19.072;2024-02-21T03:02:12;101338.06;;;7.39;77.66
75497;BME280;64074;47.540;19.072;2024-02-21T03:05:30;101349.22;;;7.09;79.15
75497;BME280;64074;47.540;19.072;2024-02-21T03:08:51;101354.63;;;7.26;78.47
75497;BME280;64074;47.540;19.072;2024-02-21T03:12:13;101352.09;;;7.19;78.89
75497;BME280;64074;47.540;19.072;2024-02-21T03:15:41;101355.94;;;7.06;78.99
75497;BME280;64074;47.540;19.072;2024-02-21T03:18:55;101366.41;;;7.03;79.14
75497;BME280;64074;47.540;19.072;2024-02-21T03:22:14;101367.78;;;7.05;79.35
75497;BME280;64074;47.540;19.072;2024-02-21T03:25:23;101356.31;;;7.15;78.88
75497;BME280;64074;47.540;19.072;2024-02-21T03:28:57;101372.50;;;7.15;78.60
75497;BME280;64074;47.540;19.072;2024-02-21T03:32:02;101365.91;;;7.23;78.61
75497;BME280;64074;47.540;19.072;2024-02-21T03:35:06;101373.25;;;7.10;78.52
75497;BME280;64074;47.540;19.072;2024-02-21T03:38:13;101365.16;;;7.10;78.61
75497;BME280;64074;47.540;19.072;2024-02-21T03:41:21;101374.25;;;7.04;78.63
75497;BME280;64074;47.540;19.072;2024-02-21T03:44:31;101370.31;;;7.12;78.77
75497;BME280;64074;47.540;19.072;2024-02-21T03:47:35;101375.06;;;6.88;79.29
75497;BME280;64074;47.540;19.072;2024-02-21T03:50:39;101366.72;;;6.90;79.57
75497;BME280;64074;47.540;19.072;2024-02-21T03:53:51;101370.16;;;6.85;79.66
75497;BME280;64074;47.540;19.072;2024-02-21T03:57:01;101357.25;;;6.87;79.66
75497;BME280;64074;47.540;19.072;2024-02-21T04:00:10;101357.19;;;6.82;79.54
75497;BME280;64074;47.540;19.072;2024-02-21T04:03:19;101369.59;;;6.83;79.55
75497;BME280;64074;47.540;19.072;2024-02-21T04:06:27;101364.91;;;6.62;80.57
75497;BME280;64074;47.540;19.072;2024-02-21T04:09:40;101356.66;;;6.68;80.21
75497;BME280;64074;47.540;19.072;2024-02-21T04:13:01;101363.28;;;6.61;80.50
75497;BME280;64074;47.540;19.072;2024-02-21T04:16:15;101349.50;;;6.74;79.93
75497;BME280;64074;47.540;19.072;2024-02-21T04:19:36;101354.91;;;6.74;80.25
75497;BME280;64074;47.540;19.072;2024-02-21T04:22:57;101354.63;;;6.59;80.38
75497;BME280;64074;47.540;19.072;2024-02-21T04:26:24;101357.97;;;6.66;80.08
75497;BME280;64074;47.540;19.072;2024-02-21T04:29:39;101349.56;;;6.62;80.56
75497;BME280;64074;47.540;19.072;2024-02-21T04:32:55;101351.69;;;6.60;80.07
75497;BME280;64074;47.540;19.072;2024-02-21T04:36:24;101351.69;;;6.60;80.17
75497;BME280;64074;47.540;19.072;2024-02-21T04:39:49;101354.47;;;6.65;79.18
75497;BME280;64074;47.540;19.072;2024-02-21T04:43:11;101347.88;;;6.73;79.44
75497;BME280;64074;47.540;19.072;2024-02-21T04:46:33;101354.47;;;6.65;79.27
75497;BME280;64074;47.540;19.072;2024-02-21T04:49:53;101351.06;;;6.70;79.50
75497;BME280;64074;47.540;19.072;2024-02-21T04:53:13;101355.28;;;6.66;80.26
75497;BME280;64074;47.540;19.072;2024-02-21T04:56:40;101361.00;;;6.53;80.49
75497;BME280;64074;47.540;19.072;2024-02-21T05:00:02;101357.06;;;6.43;80.99
75497;BME280;64074;47.540;19.072;2024-02-21T05:03:17;101362.56;;;6.48;81.29
75497;BME280;64074;47.540;19.072;2024-02-21T05:06:20;101365.50;;;6.64;80.16
75497;BME280;64074;47.540;19.072;2024-02-21T05:09:30;101364.03;;;6.56;80.47
75497;BME280;64074;47.540;19.072;2024-02-21T05:12:44;101363.13;;;6.51;81.47
75497;BME280;64074;47.540;19.072;2024-02-21T05:16:05;101370.38;;;6.50;80.66
75497;BME280;64074;47.540;19.072;2024-02-21T05:19:26;101372.84;;;6.52;81.32
75497;BME280;64074;47.540;19.072;2024-02-21T05:22:48;101364.09;;;6.61;80.66
75497;BME280;64074;47.540;19.072;2024-02-21T05:26:09;101372.03;;;6.51;80.86
75497;BME280;64074;47.540;19.072;2024-02-21T05:29:13;101357.72;;;6.51;80.91
75497;BME280;64074;47.540;19.072;2024-02-21T05:32:17;101370.16;;;6.52;80.29
75497;BME280;64074;47.540;19.072;2024-02-21T05:35:29;101363.94;;;6.51;80.95
75497;BME280;64074;47.540;19.072;2024-02-21T05:38:40;101364.00;;;6.39;81.33
75497;BME280;64074;47.540;19.072;2024-02-21T05:41:46;101371.78;;;6.53;81.11
75497;BME280;64074;47.540;19.072;2024-02-21T05:44:56;101374.91;;;6.33;81.76
75497;BME280;64074;47.540;19.072;2024-02-21T05:48:06;101375.00;;;6.38;81.30
75497;BME280;64074;47.540;19.072;2024-02-21T05:51:27;101369.69;;;6.26;81.83
75497;BME280;64074;47.540;19.072;2024-02-21T05:54:54;101368.53;;;6.22;81.99
75497;BME280;64074;47.540;19.072;2024-02-21T05:58:15;101374.25;;;6.26;81.79
75497;BME280;64074;47.540;19.072;2024-02-21T06:01:36;101370.91;;;6.35;81.11
75497;BME280;64074;47.540;19.072;2024-02-21T06:04:57;101371.69;;;6.19;82.29
75497;BME280;64074;47.540;19.072;2024-02-21T06:08:20;101378.19;;;6.35;81.23
75497;BME280;64074;47.540;19.072;2024-02-21T06:11:42;101378.34;;;6.28;81.66
75497;BME280;64074;47.540;19.072;2024-02-21T06:14:56;101371.19;;;6.51;80.80
75497;BME280;64074;47.540;19.072;2024-02-21T06:18:23;101366.47;;;6.58;80.63
75497;BME280;64074;47.540;19.072;2024-02-21T06:21:33;101376.59;;;6.67;79.53
75497;BME280;64074;47.540;19.072;2024-02-21T06:25:02;101377.09;;;6.81;79.22
75497;BME280;64074;47.540;19.072;2024-02-21T06:28:31;101383.31;;;6.98;78.29
75497;BME280;64074;47.540;19.072;2024-02-21T06:31:52;101393.63;;;7.01;77.81
75497;BME280;64074;47.540;19.072;2024-02-21T06:35:15;101397.34;;;7.34;76.58
75497;BME280;64074;47.540;19.072;2024-02-21T06:38:38;101396.94;;;7.25;76.72
75497;BME280;64074;47.540;19.072;2024-02-21T06:42:05;101390.34;;;6.99;77.14
75497;BME280;64074;47.540;19.072;2024-02-21T06:45:16;101393.19;;;7.09;76.32
75497;BME280;64074;47.540;19.072;2024-02-21T06:48:31;101394.66;;;7.17;75.79
75497;BME280;64074;47.540;19.072;2024-02-21T06:52:09;101399.69;;;7.47;74.80
75497;BME280;64074;47.540;19.072;2024-02-21T06:55:57;101396.66;;;7.82;73.07
75497;BME280;64074;47.540;19.072;2024-02-21T06:59:15;101396.75;;;8.14;71.97
75497;BME280;64074;47.540;19.072;2024-02-21T07:02:43;101403.75;;;8.10;71.60
75497;BME280;64074;47.540;19.072;2024-02-21T07:05:54;101405.25;;;8.01;72.16
75497;BME280;64074;47.540;19.072;2024-02-21T07:09:14;101407.75;;;8.08;72.38
75497;BME280;64074;47.540;19.072;2024-02-21T07:12:18;101417.81;;;8.12;72.26
75497;BME280;64074;47.540;19.072;2024-02-21T07:15:23;101420.44;;;8.07;72.61
75497;BME280;64074;47.540;19.072;2024-02-21T07:18:35;101417.56;;;7.70;73.44
75497;BME280;64074;47.540;19.072;2024-02-21T07:21:52;101422.72;;;7.93;73.41
75497;BME280;64074;47.540;19.072;2024-02-21T07:25:04;101434.16;;;8.00;73.80
75497;BME280;64074;47.540;19.072;2024-02-21T07:28:16;101431.50;;;7.84;73.61
75497;BME280;64074;47.540;19.072;2024-02-21T07:31:30;101436.53;;;7.97;74.55
75497;BME280;64074;47.540;19.072;2024-02-21T07:34:42;101436.44;;;7.92;74.16
75497;BME280;64074;47.540;19.072;2024-02-21T07:37:53;101439.09;;;7.87;74.45
75497;BME280;64074;47.540;19.072;2024-02-21T07:41:07;101430.25;;;7.69;74.74
75497;BME280;64074;47.540;19.072;2024-02-21T07:44:12;101437.75;;;7.67;75.16
75497;BME280;64074;47.540;19.072;2024-02-21T07:47:28;101437.59;;;7.74;75.01
75497;BME280;64074;47.540;19.072;2024-02-21T07:51:08;101440.31;;;7.96;74.58
75497;BME280;64074;47.540;19.072;2024-02-21T07:54:13;101446.69;;;7.90;74.32
75497;BME280;64074;47.540;19.072;2024-02-21T07:57:20;101446.66;;;8.07;73.92
75497;BME280;64074;47.540;19.072;2024-02-21T08:00:27;101457.91;;;7.98;74.21
75497;BME280;64074;47.540;19.072;2024-02-21T08:03:30;101448.28;;;8.29;72.96
75497;BME280;64074;47.540;19.072;2024-02-21T08:06:38;101448.41;;;8.40;72.40
75497;BME280;64074;47.540;19.072;2024-02-21T08:09:43;101449.59;;;8.49;71.97
75497;BME280;64074;47.540;19.072;2024-02-21T08:12:55;101451.50;;;8.75;71.10
75497;BME280;64074;47.540;19.072;2024-02-21T08:16:15;101443.69;;;8.52;72.46
75497;BME280;64074;47.540;19.072;2024-02-21T08:19:36;101445.94;;;8.60;71.17
75497;BME280;64074;47.540;19.072;2024-02-21T08:22:51;101430.31;;;8.67;71.58
75497;BME280;64074;47.540;19.072;2024-02-21T08:26:03;101433.66;;;8.74;70.54
75497;BME280;64074;47.540;19.072;2024-02-21T08:29:36;101433.44;;;8.81;70.96
75497;BME280;64074;47.540;19.072;2024-02-21T08:33:05;101433.56;;;8.96;69.96
75497;BME280;64074;47.540;19.072;2024-02-21T08:36:19;101428.00;;;9.13;70.06
75497;BME280;64074;47.540;19.072;2024-02-21T08:39:49;101440.59;;;9.29;69.13
75497;BME280;64074;47.540;19.072;2024-02-21T08:43:17;101437.69;;;9.04;68.72
75497;BME280;64074;47.540;19.072;2024-02-21T08:46:34;101427.03;;;9.24;68.22
75497;BME280;64074;47.540;19.072;2024-02-21T08:50:02;101432.28;;;9.41;68.39
75497;BME280;64074;47.540;19.072;2024-02-21T08:53:27;101422.84;;;9.43;68.30
75497;BME280;64074;47.540;19.072;2024-02-21T08:56:41;101429.16;;;9.59;67.65
75497;BME280;64074;47.540;19.072;2024-02-21T08:59:46;101423.03;;;9.74;67.19
75497;BME280;64074;47.540;19.072;2024-02-21T09:02:51;101423.06;;;9.84;65.20
75497;BME280;64074;47.540;19.072;2024-02-21T09:05:55;101411.78;;;10.07;64.92
75497;BME280;64074;47.540;19.072;2024-02-21T09:09:01;101418.47;;;9.90;64.49
75497;BME280;64074;47.540;19.072;2024-02-21T09:12:09;101416.81;;;9.83;64.91
75497;BME280;64074;47.540;19.072;2024-02-21T09:15:19;101421.97;;;9.85;64.97
75497;BME280;64074;47.540;19.072;2024-02-21T09:18:33;101410.03;;;9.81;65.37
75497;BME280;64074;47.540;19.072;2024-02-21T09:21:47;101408.50;;;10.00;64.07
75497;BME280;64074;47.540;19.072;2024-02-21T09:25:06;101407.19;;;10.13;63.67
75497;BME280;64074;47.540;19.072;2024-02-21T09:28:32;101403.22;;;10.26;64.18
75497;BME280;64074;47.540;19.072;2024-02-21T09:31:44;101400.94;;;10.02;64.27
75497;BME280;64074;47.540;19.072;2024-02-21T09:34:57;101410.66;;;9.93;63.29
75497;BME280;64074;47.540;19.072;2024-02-21T09:38:18;101405.34;;;10.18;62.37
75497;BME280;64074;47.540;19.072;2024-02-21T09:41:41;101408.88;;;10.19;62.73
75497;BME280;64074;47.540;19.072;2024-02-21T09:45:23;101408.53;;;10.10;61.90
75497;BME280;64074;47.540;19.072;2024-02-21T09:52:08;101399.88;;;10.13;61.62
75497;BME280;64074;47.540;19.072;2024-02-21T09:55:14;101405.38;;;10.29;61.04
75497;BME280;64074;47.540;19.072;2024-02-21T09:58:26;101406.00;;;10.76;59.60
75497;BME280;64074;47.540;19.072;2024-02-21T10:01:43;101398.41;;;11.14;58.21
75497;BME280;64074;47.540;19.072;2024-02-21T10:04:57;101392.69;;;11.36;57.07
75497;BME280;64074;47.540;19.072;2024-02-21T10:08:19;101394.31;;;11.37;58.00
75497;BME280;64074;47.540;19.072;2024-02-21T10:11:41;101392.91;;;11.60;57.12
75497;BME280;64074;47.540;19.072;2024-02-21T10:15:02;101385.00;;;11.74;56.20
75497;BME280;64074;47.540;19.072;2024-02-21T10:18:06;101387.75;;;11.53;57.24
75497;BME280;64074;47.540;19.072;2024-02-21T10:21:10;101380.69;;;11.57;56.54
75497;BME280;64074;47.540;19.072;2024-02-21T10:24:26;101385.00;;;11.74;55.63
75497;BME280;64074;47.540;19.072;2024-02-21T10:27:53;101386.56;;;11.95;55.53
75497;BME280;64074;47.540;19.072;2024-02-21T10:31:23;101383.31;;;11.88;55.89
75497;BME280;64074;47.540;19.072;2024-02-21T10:34:35;101378.28;;;12.20;55.11
75497;BME280;64074;47.540;19.072;2024-02-21T10:38:00;101366.09;;;12.08;55.71
75497;BME280;64074;47.540;19.072;2024-02-21T10:41:14;101358.38;;;11.70;56.32
75497;BME280;64074;47.540;19.072;2024-02-21T10:44:41;101357.47;;;12.00;56.01
75497;BME280;64074;47.540;19.072;2024-02-21T10:47:55;101346.41;;;11.77;56.18
75497;BME280;64074;47.540;19.072;2024-02-21T10:51:19;101341.28;;;11.65;56.94
75497;BME280;64074;47.540;19.072;2024-02-21T10:54:47;101346.16;;;11.68;57.38
75497;BME280;64074;47.540;19.072;2024-02-21T10:58:02;101337.44;;;11.76;56.72
75497;BME280;64074;47.540;19.072;2024-02-21T11:01:20;101342.56;;;11.93;55.84
75497;BME280;64074;47.540;19.072;2024-02-21T11:04:47;101327.47;;;12.16;55.07
75497;BME280;64074;47.540;19.072;2024-02-21T11:08:08;101318.66;;;12.68;54.66
75497;BME280;64074;47.540;19.072;2024-02-21T11:11:24;101315.03;;;12.78;52.48
75497;BME280;64074;47.540;19.072;2024-02-21T11:15:03;101296.59;;;12.99;52.90
75497;BME280;64074;47.540;19.072;2024-02-21T11:18:24;101291.94;;;12.75;52.93
75497;BME280;64074;47.540;19.072;2024-02-21T11:21:37;101280.81;;;12.72;52.54
75497;BME280;64074;47.540;19.072;2024-02-21T11:25:06;101287.53;;;12.50;53.40
75497;BME280;64074;47.540;19.072;2024-02-21T11:28:25;101284.31;;;12.43;53.52
75497;BME280;64074;47.540;19.072;2024-02-21T11:31:42;101279.72;;;12.39;52.29
75497;BME280;64074;47.540;19.072;2024-02-21T11:35:02;101270.16;;;12.46;52.68
75497;BME280;64074;47.540;19.072;2024-02-21T11:38:19;101269.63;;;12.73;52.65
75497;BME280;64074;47.540;19.072;2024-02-21T11:41:40;101272.81;;;12.51;52.74
75497;BME280;64074;47.540;19.072;2024-02-21T11:45:00;101273.69;;;12.47;53.10
75497;BME280;64074;47.540;19.072;2024-02-21T11:48:26;101269.84;;;13.06;52.77
75497;BME280;64074;47.540;19.072;2024-02-21T11:52:01;101258.41;;;12.80;51.39
75497;BME280;64074;47.540;19.072;2024-02-21T11:55:16;101259.56;;;12.45;52.84
75497;BME280;64074;47.540;19.072;2024-02-21T11:58:23;101257.00;;;12.24;53.39
75497;BME280;64074;47.540;19.072;2024-02-21T12:01:30;101258.72;;;12.15;53.89
75497;BME280;64074;47.540;19.072;2024-02-21T12:04:36;101254.66;;;12.08;53.35
75497;BME280;64074;47.540;19.072;2024-02-21T12:07:46;101251.38;;;12.11;53.28
75497;BME280;64074;47.540;19.072;2024-02-21T12:11:01;101241.53;;;12.20;52.85
75497;BME280;64074;47.540;19.072;2024-02-21T12:14:15;101240.31;;;12.36;53.22
75497;BME280;64074;47.540;19.072;2024-02-21T12:17:36;101235.81;;;12.21;52.52
75497;BME280;64074;47.540;19.072;2024-02-21T12:20:48;101240.34;;;11.97;52.21
75497;BME280;64074;47.540;19.072;2024-02-21T12:24:21;101242.63;;;12.19;52.02
75497;BME280;64074;47.540;19.072;2024-02-21T12:27:42;101231.34;;;12.01;50.59
75497;BME280;64074;47.540;19.072;2024-02-21T12:30:45;101228.25;;;12.13;51.66
75497;BME280;64074;47.540;19.072;2024-02-21T12:33:49;101226.47;;;12.32;51.59
75497;BME280;64074;47.540;19.072;2024-02-21T12:36:59;101224.09;;;12.26;51.30
75497;BME280;64074;47.540;19.072;2024-02-21T12:40:14;101217.03;;;12.25;51.90
75497;BME280;64074;47.540;19.072;2024-02-21T12:43:22;101221.47;;;12.45;51.55
75497;BME280;64074;47.540;19.072;2024-02-21T12:46:26;101221.06;;;12.27;51.01
75497;BME280;64074;47.540;19.072;2024-02-21T12:49:35;101209.59;;;12.65;50.11
75497;BME280;64074;47.540;19.072;2024-02-21T12:52:47;101210.38;;;12.41;51.27
75497;BME280;64074;47.540;19.072;2024-02-21T12:56:08;101192.91;;;12.47;50.81
75497;BME280;64074;47.540;19.072;2024-02-21T12:59:15;101205.06;;;12.55;50.16
75497;BME280;64074;47.540;19.072;2024-02-21T13:02:26;101194.84;;;12.94;49.59
75497;BME280;64074;47.540;19.072;2024-02-21T13:05:49;101200.69;;;12.83;49.33
75497;BME280;64074;47.540;19.072;2024-02-21T13:09:18;101192.50;;;12.59;49.21
75497;BME280;64074;47.540;19.072;2024-02-21T13:12:43;101185.69;;;12.32;50.01
75497;BME280;64074;47.540;19.072;2024-02-21T13:16:06;101173.75;;;12.28;49.87
75497;BME280;64074;47.540;19.072;2024-02-21T13:19:23;101181.28;;;12.37;50.47
75497;BME280;64074;47.540;19.072;2024-02-21T13:22:44;101176.56;;;12.47;50.64
75497;BME280;64074;47.540;19.072;2024-02-21T13:26:05;101168.59;;;12.56;52.18
75497;BME280;64074;47.540;19.072;2024-02-21T13:29:34;101161.59;;;12.74;49.69
75497;BME280;64074;47.540;19.072;2024-02-21T13:32:54;101151.91;;;12.86;49.36
75497;BME280;64074;47.540;19.072;2024-02-21T13:36:02;101153.22;;;12.70;49.30
75497;BME280;64074;47.540;19.072;2024-02-21T13:39:13;101151.28;;;12.94;50.14
75497;BME280;64074;47.540;19.072;2024-02-21T13:42:45;101145.88;;;13.13;50.11
75497;BME280;64074;47.540;19.072;2024-02-21T13:46:12;101147.47;;;12.96;47.96
75497;BME280;64074;47.540;19.072;2024-02-21T13:49:36;101142.06;;;13.14;47.03
75497;BME280;64074;47.540;19.072;2024-02-21T13:52:58;101139.00;;;13.21;45.31
75497;BME280;64074;47.540;19.072;2024-02-21T13:56:20;101130.28;;;12.76;46.68
75497;BME280;64074;47.540;19.072;2024-02-21T13:59:43;101121.78;;;13.02;47.11
75497;BME280;64074;47.540;19.072;2024-02-21T14:03:10;101134.25;;;12.84;46.67
75497;BME280;64074;47.540;19.072;2024-02-21T14:06:30;101123.44;;;12.79;46.61
75497;BME280;64074;47.540;19.072;2024-02-21T14:09:35;101131.38;;;12.99;46.42
75497;BME280;64074;47.540;19.072;2024-02-21T14:12:55;101125.50;;;12.87;46.44
75497;BME280;64074;47.540;19.072;2024-02-21T14:16:45;101129.53;;;12.71;46.53
75497;BME280;64074;47.540;19.072;2024-02-21T14:19:56;101129.94;;;12.59;46.25
75497;BME280;64074;47.540;19.072;2024-02-21T14:23:19;101120.47;;;12.99;45.72
75497;BME280;64074;47.540;19.072;2024-02-21T14:26:30;101117.97;;;13.03;45.57
75497;BME280;64074;47.540;19.072;2024-02-21T14:29:41;101120.69;;;13.03;45.83
75497;BME280;64074;47.540;19.072;2024-02-21T14:32:49;101122.78;;;12.68;46.25
75497;BME280;64074;47.540;19.072;2024-02-21T14:35:56;101123.56;;;12.69;46.29
75497;BME280;64074;47.540;19.072;2024-02-21T14:39:07;101123.59;;;12.87;46.01
75497;BME280;64074;47.540;19.072;2024-02-21T14:42:19;101119.84;;;12.83;45.49
75497;BME280;64074;47.540;19.072;2024-02-21T14:45:28;101117.41;;;12.82;46.72
75497;BME280;64074;47.540;19.072;2024-02-21T14:48:35;101115.09;;;12.94;46.02
75497;BME280;64074;47.540;19.072;2024-02-21T14:51:41;101115.03;;;12.99;45.71
75497;BME280;64074;47.540;19.072;2024-02-21T14:54:49;101100.63;;;12.75;45.83
75497;BME280;64074;47.540;19.072;2024-02-21T14:57:59;101100.13;;;12.73;46.04
75497;BME280;64074;47.540;19.072;2024-02-21T15:01:09;101102.13;;;12.86;46.28
75497;BME280;64074;47.540;19.072;2024-02-21T15:04:24;101097.03;;;12.79;45.28
75497;BME280;64074;47.540;19.072;2024-02-21T15:07:52;101100.06;;;12.78;46.08
75497;BME280;64074;47.540;19.072;2024-02-21T15:11:08;101090.94;;;12.87;45.63
75497;BME280;64074;47.540;19.072;2024-02-21T15:14:13;101092.75;;;12.97;45.40
75497;BME280;64074;47.540;19.072;2024-02-21T15:17:22;101086.53;;;12.73;45.74
75497;BME280;64074;47.540;19.072;2024-02-21T15:20:30;101086.81;;;12.71;45.59
75497;BME280;64074;47.540;19.072;2024-02-21T15:23:35;101083.28;;;12.71;45.84
75497;BME280;64074;47.540;19.072;2024-02-21T15:26:39;101083.81;;;12.73;45.07
75497;BME280;64074;47.540;19.072;2024-02-21T15:29:48;101089.13;;;12.59;46.15
75497;BME280;64074;47.540;19.072;2024-02-21T15:33:10;101082.13;;;12.77;46.27
75497;BME280;64074;47.540;19.072;2024-02-21T15:36:31;101080.50;;;12.76;46.19
75497;BME280;64074;47.540;19.072;2024-02-21T15:39:52;101077.03;;;12.70;46.11
75497;BME280;64074;47.540;19.072;2024-02-21T15:43:18;101081.31;;;12.76;45.46
75497;BME280;64074;47.540;19.072;2024-02-21T15:46:41;101081.97;;;12.44;45.95
75497;BME280;64074;47.540;19.072;2024-02-21T15:49:59;101080.66;;;12.37;46.67
75497;BME280;64074;47.540;19.072;2024-02-21T15:53:23;101079.41;;;12.53;46.50
75497;BME280;64074;47.540;19.072;2024-02-21T15:56:39;101076.38;;;12.30;46.84
75497;BME280;64074;47.540;19.072;2024-02-21T15:59:52;101073.56;;;12.41;45.88
75497;BME280;64074;47.540;19.072;2024-02-21T16:03:30;101077.91;;;12.18;47.05
75497;BME280;64074;47.540;19.072;2024-02-21T16:06:53;101071.59;;;12.22;46.71
75497;BME280;64074;47.540;19.072;2024-02-21T16:10:15;101069.25;;;12.11;47.20
75497;BME280;64074;47.540;19.072;2024-02-21T16:13:33;101065.94;;;12.19;47.42
75497;BME280;64074;47.540;19.072;2024-02-21T16:17:02;101064.63;;;12.11;47.18
75497;BME280;64074;47.540;19.072;2024-02-21T16:20:23;101070.22;;;12.25;46.96
75497;BME280;64074;47.540;19.072;2024-02-21T16:23:43;101077.03;;;12.22;46.56
75497;BME280;64074;47.540;19.072;2024-02-21T16:27:02;101083.50;;;12.26;47.11
75497;BME280;64074;47.540;19.072;2024-02-21T16:30:28;101072.94;;;12.25;46.57
75497;BME280;64074;47.540;19.072;2024-02-21T16:33:46;101067.47;;;12.25;45.83
75497;BME280;64074;47.540;19.072;2024-02-21T16:37:03;101072.47;;;12.18;46.69
75497;BME280;64074;47.540;19.072;2024-02-21T16:40:30;101076.88;;;12.09;47.25
75497;BME280;64074;47.540;19.072;2024-02-21T16:43:53;101076.03;;;12.13;47.21
75497;BME280;64074;47.540;19.072;2024-02-21T16:47:03;101067.63;;;12.10;47.47
75497;BME280;64074;47.540;19.072;2024-02-21T16:50:07;101077.22;;;12.02;47.58
75497;BME280;64074;47.540;19.072;2024-02-21T16:53:20;101075.50;;;12.11;47.33
75497;BME280;64074;47.540;19.072;2024-02-21T16:56:24;101090.97;;;12.16;47.48
75497;BME280;64074;47.540;19.072;2024-02-21T16:59:28;101089.94;;;12.07;47.68
75497;BME280;64074;47.540;19.072;2024-02-21T17:02:43;101083.81;;;11.96;48.61